Time;durP1;ratioP1;P1;durP2;ratioP2;P2;SDS_P1;SDS_P2;PMS_P1;PMS_P2;Temp;Humidity;BMP_temperature;BMP_pressure;BME280_temperature;BME280_humidity;BME280_pressure;Samples;Min_cycle;Max_cycle;Signal;HPM_P1;HPM_P2
2022/11/23 00:02:23;;;;;;;75.35;28.27;;;1.60;99.90;;;;;;5045155;28;20033;-52
2022/11/23 00:04:48;;;;;;;82.55;31.23;;;1.60;99.90;;;;;;5054403;28;20029;-50
2022/11/23 00:07:14;;;;;;;83.85;30.95;;;1.60;99.90;;;;;;5046817;28;20109;-51
2022/11/23 00:09:39;;;;;;;86.88;30.08;;;1.60;99.90;;;;;;5063589;28;20060;-52
2022/11/23 00:12:05;;;;;;;82.82;29.02;;;1.60;99.90;;;;;;5055898;28;20021;-51
2022/11/23 00:14:31;;;;;;;74.45;29.17;;;1.60;99.90;;;;;;5044253;28;20017;-48
2022/11/23 00:16:56;;;;;;;77.22;27.48;;;1.50;99.90;;;;;;5049333;28;20703;-50
2022/11/23 00:19:22;;;;;;;71.90;24.05;;;1.50;99.90;;;;;;5067696;28;20102;-53
2022/11/23 00:21:47;;;;;;;68.43;24.35;;;1.50;99.90;;;;;;5047874;28;20045;-50
2022/11/23 00:24:13;;;;;;;59.33;21.55;;;1.50;99.90;;;;;;5068294;28;20028;-51
2022/11/23 00:26:38;;;;;;;59.72;21.30;;;1.50;99.90;;;;;;5047970;28;20104;-48
2022/11/23 00:29:04;;;;;;;62.80;21.35;;;1.50;99.90;;;;;;5068040;28;20488;-53
2022/11/23 00:31:29;;;;;;;71.18;24.50;;;1.40;99.90;;;;;;5047761;28;20445;-49
2022/11/23 00:33:56;;;;;;;70.68;26.80;;;1.40;99.90;;;;;;5067865;28;20030;-48
2022/11/23 00:36:23;;;;;;;76.68;24.60;;;1.30;99.90;;;;;;5047487;28;20136;-46
2022/11/23 00:38:50;;;;;;;76.95;26.50;;;1.30;99.90;;;;;;5068340;28;20683;-48
2022/11/23 00:41:18;;;;;;;75.82;27.15;;;1.30;99.90;;;;;;5047081;28;20048;-47
2022/11/23 00:43:44;;;;;;;81.05;27.38;;;1.20;99.90;;;;;;5068206;28;20075;-50
2022/11/23 00:46:12;;;;;;;75.05;26.38;;;1.20;99.90;;;;;;5047615;28;20040;-50
2022/11/23 00:48:38;;;;;;;75.93;27.23;;;1.10;99.90;;;;;;5067592;28;20032;-47
2022/11/23 00:51:06;;;;;;;74.10;25.60;;;1.10;99.90;;;;;;5047391;28;20056;-46
2022/11/23 00:53:32;;;;;;;70.13;26.92;;;1.00;99.90;;;;;;5068182;28;20077;-47
2022/11/23 00:55:57;;;;;;;68.95;25.48;;;1.00;99.90;;;;;;5047185;28;20108;-51
2022/11/23 00:58:24;;;;;;;80.70;28.63;;;1.00;99.90;;;;;;5067801;28;20520;-50
2022/11/23 01:00:50;;;;;;;88.93;31.60;;;0.90;99.90;;;;;;5046761;28;20188;-48
2022/11/23 01:03:16;;;;;;;84.35;32.38;;;0.90;99.90;;;;;;5067554;28;20511;-46
2022/11/23 01:05:41;;;;;;;80.25;30.25;;;0.90;99.90;;;;;;5043881;28;20041;-48
2022/11/23 01:08:07;;;;;;;85.85;30.35;;;0.90;99.90;;;;;;5067437;28;20033;-52
2022/11/23 01:10:33;;;;;;;96.43;33.50;;;0.90;99.90;;;;;;5046991;28;20066;-49
2022/11/23 01:12:58;;;;;;;90.70;31.40;;;0.90;99.90;;;;;;5067361;28;20021;-47
2022/11/23 01:15:25;;;;;;;92.13;31.98;;;0.80;99.90;;;;;;5047022;28;20647;-47
2022/11/23 01:17:50;;;;;;;92.22;33.72;;;0.80;99.90;;;;;;5067550;28;20039;-50
2022/11/23 01:20:16;;;;;;;95.50;33.22;;;0.80;99.90;;;;;;5046648;28;20618;-47
2022/11/23 01:22:41;;;;;;;82.00;29.70;;;0.80;99.90;;;;;;5048081;28;20096;-46
2022/11/23 01:25:07;;;;;;;66.03;24.45;;;0.80;99.90;;;;;;5059873;28;20021;-49
2022/11/23 01:27:33;;;;;;;81.32;29.13;;;0.80;99.90;;;;;;5047046;28;20025;-45
2022/11/23 01:29:58;;;;;;;87.60;30.90;;;0.80;99.90;;;;;;5061026;28;20037;-46
2022/11/23 01:32:24;;;;;;;96.97;32.58;;;0.80;99.90;;;;;;5048070;28;20033;-50
2022/11/23 01:34:49;;;;;;;79.85;29.33;;;0.80;99.90;;;;;;5062093;28;20099;-47
2022/11/23 01:37:15;;;;;;;72.50;25.67;;;0.80;99.90;;;;;;5047938;28;20025;-46
2022/11/23 01:39:40;;;;;;;74.68;26.60;;;0.80;99.90;;;;;;5063231;28;20043;-49
2022/11/23 01:42:07;;;;;;;74.30;23.60;;;0.80;99.90;;;;;;5047893;28;20563;-48
2022/11/23 01:44:35;;;;;;;71.88;24.00;;;0.80;99.90;;;;;;5064865;28;20043;-49
2022/11/23 01:47:03;;;;;;;75.25;22.60;;;0.80;99.90;;;;;;5047808;28;20031;-47
2022/11/23 01:49:51;;;;;;;75.75;25.35;;;0.80;99.90;;;;;;5065338;28;20032;-46
2022/11/23 01:52:22;;;;;;;83.40;27.55;;;0.80;99.90;;;;;;5045662;28;20057;-47
2022/11/23 01:54:55;;;;;;;83.07;24.85;;;0.80;99.90;;;;;;5027744;28;20037;-48
2022/11/23 01:57:33;;;;;;;74.35;24.98;;;0.80;99.90;;;;;;5037671;28;20068;-50
2022/11/23 02:00:00;;;;;;;69.60;24.42;;;0.80;99.90;;;;;;5027784;28;20038;-47
2022/11/23 02:02:27;;;;;;;56.88;21.90;;;0.70;99.90;;;;;;5052259;28;20033;-50
2022/11/23 02:04:56;;;;;;;82.30;27.38;;;0.70;99.90;;;;;;5059422;28;20031;-45
2022/11/23 02:07:24;;;;;;;75.53;24.98;;;0.70;99.90;;;;;;5045702;28;20094;-47
2022/11/23 02:09:50;;;;;;;81.97;27.05;;;0.70;99.90;;;;;;5065209;28;20017;-46
2022/11/23 02:12:16;;;;;;;74.30;24.08;;;0.70;99.90;;;;;;5067771;28;20493;-49
2022/11/23 02:14:41;;;;;;;68.75;24.85;;;0.60;99.90;;;;;;5046005;28;20060;-50
2022/11/23 02:17:08;;;;;;;69.70;23.63;;;0.60;99.90;;;;;;5047861;28;20045;-49
2022/11/23 02:19:51;;;;;;;77.47;27.52;;;0.50;99.90;;;;;;5060712;28;20064;-50
2022/11/23 02:22:27;;;;;;;66.40;25.63;;;0.50;99.90;;;;;;5047792;28;20104;-50
2022/11/23 02:24:54;;;;;;;90.38;29.50;;;0.50;99.90;;;;;;5032531;28;20041;-49
2022/11/23 02:27:21;;;;;;;77.63;26.55;;;0.50;99.90;;;;;;5047750;28;20040;-46
2022/11/23 02:29:47;;;;;;;78.18;26.60;;;0.60;99.90;;;;;;5057611;28;20021;-49
2022/11/23 02:32:19;;;;;;;94.38;32.15;;;0.60;99.90;;;;;;5047459;28;20029;-48
2022/11/23 02:34:45;;;;;;;88.10;29.02;;;0.60;99.90;;;;;;5032827;28;20049;-47
2022/11/23 02:37:10;;;;;;;75.70;26.67;;;0.70;99.90;;;;;;5051262;28;20056;-46
2022/11/23 02:39:41;;;;;;;88.25;29.67;;;0.70;99.90;;;;;;5068760;28;20032;-51
2022/11/23 02:42:06;;;;;;;85.32;28.92;;;0.80;99.90;;;;;;5049361;28;20044;-49
2022/11/23 02:44:46;;;;;;;77.10;26.42;;;0.80;99.90;;;;;;5070114;28;20040;-46
2022/11/23 02:47:12;;;;;;;87.05;30.27;;;0.90;99.90;;;;;;5031301;28;20552;-47
2022/11/23 02:49:40;;;;;;;64.65;24.38;;;0.90;99.90;;;;;;5069489;28;20028;-47
2022/11/23 02:52:07;;;;;;;81.05;25.77;;;1.00;99.90;;;;;;5049056;28;20033;-48
2022/11/23 02:54:33;;;;;;;65.53;23.75;;;1.10;99.90;;;;;;5070286;28;20068;-46
2022/11/23 02:56:58;;;;;;;75.57;26.67;;;1.10;99.90;;;;;;5049250;28;20079;-47
2022/11/23 02:59:24;;;;;;;75.10;25.70;;;1.20;99.90;;;;;;5069977;28;20604;-46
2022/11/23 03:01:49;;;;;;;72.35;26.25;;;1.20;99.90;;;;;;5049230;28;20075;-47
2022/11/23 03:04:15;;;;;;;75.78;30.40;;;1.20;99.90;;;;;;5069861;28;20709;-50
2022/11/23 03:06:41;;;;;;;70.18;25.65;;;1.20;99.90;;;;;;5045814;28;20099;-48
2022/11/23 03:09:07;;;;;;;79.25;28.38;;;1.20;99.90;;;;;;5069794;28;20044;-48
2022/11/23 03:11:33;;;;;;;79.78;28.55;;;1.30;99.90;;;;;;5049226;28;20064;-45
2022/11/23 03:13:59;;;;;;;78.10;28.63;;;1.30;99.90;;;;;;5069565;28;20029;-47
2022/11/23 03:16:25;;;;;;;79.57;28.52;;;1.30;99.90;;;;;;5049025;28;20025;-49
2022/11/23 03:18:50;;;;;;;69.88;28.08;;;1.30;99.90;;;;;;5069676;28;20086;-45
2022/11/23 03:21:16;;;;;;;75.72;29.70;;;1.40;99.90;;;;;;5048929;28;20785;-46
2022/11/23 03:23:41;;;;;;;81.90;29.30;;;1.40;99.90;;;;;;5069693;28;20028;-46
2022/11/23 03:26:07;;;;;;;69.57;28.40;;;1.40;99.90;;;;;;5048794;28;20158;-48
2022/11/23 03:28:33;;;;;;;81.90;32.50;;;1.40;99.90;;;;;;5069568;28;20020;-50
2022/11/23 03:30:58;;;;;;;75.47;29.08;;;1.30;99.90;;;;;;5048634;28;20044;-49
2022/11/23 03:33:24;;;;;;;73.88;27.45;;;1.30;99.90;;;;;;5069177;28;20036;-52
2022/11/23 03:35:49;;;;;;;72.65;28.02;;;1.30;99.90;;;;;;5057736;28;20158;-48
2022/11/23 03:38:15;;;;;;;76.75;28.52;;;1.30;99.90;;;;;;5050445;28;20029;-48
2022/11/23 03:40:43;;;;;;;83.65;32.55;;;1.30;99.90;;;;;;5057255;28;20041;-49
2022/11/23 03:43:09;;;;;;;76.85;31.10;;;1.20;99.90;;;;;;5069415;28;20033;-46
2022/11/23 03:45:34;;;;;;;77.13;30.20;;;1.20;99.90;;;;;;5047350;28;20032;-49
2022/11/23 03:48:00;;;;;;;71.35;29.27;;;1.10;99.90;;;;;;5049703;28;20025;-46
2022/11/23 03:50:25;;;;;;;73.45;28.27;;;1.10;99.90;;;;;;5061015;28;20114;-49
2022/11/23 03:52:51;;;;;;;72.43;27.92;;;1.10;99.90;;;;;;5049747;28;20039;-53
2022/11/23 03:55:16;;;;;;;64.75;26.95;;;1.10;99.90;;;;;;5062109;28;20025;-50
2022/11/23 03:57:42;;;;;;;79.32;28.55;;;1.10;99.90;;;;;;5049801;28;20021;-50
2022/11/23 04:00:08;;;;;;;61.15;23.48;;;1.10;99.90;;;;;;5063038;28;20656;-48
2022/11/23 04:02:34;;;;;;;69.82;26.10;;;1.00;99.90;;;;;;5049598;28;20537;-49
2022/11/23 04:05:00;;;;;;;73.28;27.08;;;1.10;99.90;;;;;;5058309;28;20124;-47
2022/11/23 04:07:26;;;;;;;79.28;29.75;;;1.10;99.90;;;;;;5058483;28;20039;-49
2022/11/23 04:09:51;;;;;;;83.03;32.35;;;1.00;99.90;;;;;;5049935;28;20119;-47
2022/11/23 04:12:17;;;;;;;81.38;32.25;;;1.00;99.90;;;;;;5056781;28;20043;-49
2022/11/23 04:14:43;;;;;;;71.07;26.20;;;0.90;99.90;;;;;;5068701;28;20403;-46
2022/11/23 04:17:08;;;;;;;78.07;30.08;;;0.90;99.90;;;;;;5047841;28;20033;-46
2022/11/23 04:19:33;;;;;;;70.60;27.35;;;0.90;99.90;;;;;;5068584;28;20119;-50
2022/11/23 04:21:59;;;;;;;76.22;29.38;;;0.80;99.90;;;;;;5047803;28;20048;-46
2022/11/23 04:24:24;;;;;;;79.18;30.40;;;0.80;99.90;;;;;;5049271;28;20033;-52
2022/11/23 04:26:50;;;;;;;74.90;28.30;;;0.70;99.90;;;;;;5060207;28;20040;-47
2022/11/23 04:29:15;;;;;;;69.95;26.73;;;0.70;99.90;;;;;;5049054;28;20469;-47
2022/11/23 04:31:41;;;;;;;72.32;26.67;;;0.70;99.90;;;;;;5061269;28;20037;-50
2022/11/23 04:34:06;;;;;;;64.10;26.58;;;0.70;99.90;;;;;;5048967;28;20021;-52
2022/11/23 04:36:32;;;;;;;81.88;28.60;;;0.70;99.90;;;;;;5051109;28;20063;-50
2022/11/23 04:38:57;;;;;;;76.85;30.98;;;0.60;99.90;;;;;;5067967;28;20024;-49
2022/11/23 04:41:23;;;;;;;79.32;28.45;;;0.60;99.90;;;;;;5047401;28;20417;-45
2022/11/23 04:43:49;;;;;;;69.35;27.10;;;0.60;99.90;;;;;;5066650;28;20036;-48
2022/11/23 04:46:14;;;;;;;80.13;29.85;;;0.60;99.90;;;;;;5047348;28;20031;-48
2022/11/23 04:48:40;;;;;;;85.30;31.77;;;0.60;99.90;;;;;;5068011;28;20036;-51
2022/11/23 04:51:06;;;;;;;87.95;29.98;;;0.60;99.90;;;;;;5047375;28;20029;-52
2022/11/23 04:53:31;;;;;;;79.15;28.52;;;0.60;99.90;;;;;;5067988;28;20048;-51
2022/11/23 04:55:57;;;;;;;89.25;31.83;;;0.60;99.90;;;;;;5046794;28;20374;-48
2022/11/23 04:58:22;;;;;;;83.05;31.55;;;0.60;99.90;;;;;;5068005;28;20025;-44
2022/11/23 05:00:48;;;;;;;80.07;29.70;;;0.60;99.90;;;;;;5046922;28;20087;-49
2022/11/23 05:03:13;;;;;;;79.07;29.88;;;0.60;99.90;;;;;;5058926;28;20040;-50
2022/11/23 05:05:39;;;;;;;84.20;30.77;;;0.60;99.90;;;;;;5054864;28;20028;-48
2022/11/23 05:08:05;;;;;;;90.88;31.52;;;0.60;99.90;;;;;;5046959;28;20104;-53
2022/11/23 05:10:31;;;;;;;86.97;29.38;;;0.60;99.90;;;;;;5059291;28;20037;-47
2022/11/23 05:12:57;;;;;;;72.78;27.98;;;0.60;99.90;;;;;;5065323;28;20028;-47
2022/11/23 05:15:22;;;;;;;67.38;25.65;;;0.60;99.90;;;;;;5058664;28;20118;-49
2022/11/23 05:17:48;;;;;;;82.55;29.35;;;0.70;99.90;;;;;;5052480;28;20071;-48
2022/11/23 05:20:14;;;;;;;122.13;31.67;;;0.70;99.90;;;;;;5068816;28;20036;-48
2022/11/23 05:22:40;;;;;;;109.15;30.35;;;0.70;99.90;;;;;;5051801;28;20035;-50
2022/11/23 05:25:05;;;;;;;100.18;29.95;;;0.70;99.90;;;;;;5068673;28;20486;-52
2022/11/23 05:27:31;;;;;;;97.72;27.40;;;0.70;99.90;;;;;;5050734;28;20032;-51
2022/11/23 05:29:56;;;;;;;97.32;28.10;;;0.60;99.90;;;;;;5068617;28;20039;-47
2022/11/23 05:32:22;;;;;;;115.30;27.92;;;0.70;99.90;;;;;;5049362;28;20082;-48
2022/11/23 05:34:47;;;;;;;87.05;29.15;;;0.70;99.90;;;;;;5068371;28;20036;-46
2022/11/23 05:37:13;;;;;;;84.50;26.38;;;0.60;99.90;;;;;;5049196;28;20382;-48
2022/11/23 05:39:38;;;;;;;89.13;25.13;;;0.60;99.90;;;;;;5066866;28;20040;-51
2022/11/23 05:42:04;;;;;;;111.25;28.25;;;0.60;99.90;;;;;;5047624;28;20032;-50
2022/11/23 05:44:30;;;;;;;97.57;28.90;;;0.60;99.90;;;;;;5068718;28;20110;-51
2022/11/23 05:46:55;;;;;;;72.22;26.02;;;0.60;99.90;;;;;;5048782;28;20022;-51
2022/11/23 05:49:21;;;;;;;102.25;25.63;;;0.60;99.90;;;;;;5056445;28;20043;-50
2022/11/23 05:51:46;;;;;;;100.82;27.23;;;0.60;99.90;;;;;;5067439;28;20036;-50
2022/11/23 05:54:12;;;;;;;144.45;30.90;;;0.60;99.90;;;;;;5051836;28;20502;-49
2022/11/23 05:56:37;;;;;;;95.68;27.33;;;0.60;99.90;;;;;;5068252;28;20039;-55
2022/11/23 05:59:04;;;;;;;108.40;26.80;;;0.50;99.90;;;;;;5046755;28;20029;-51
2022/11/23 06:01:30;;;;;;;98.90;26.63;;;0.50;99.90;;;;;;5067735;28;20036;-48
2022/11/23 06:03:56;;;;;;;73.07;23.42;;;0.50;99.90;;;;;;5044204;28;20063;-52
2022/11/23 06:06:21;;;;;;;83.60;23.33;;;0.50;99.90;;;;;;5065651;28;20033;-52
2022/11/23 06:08:47;;;;;;;100.53;21.35;;;0.50;99.90;;;;;;5052733;28;20035;-50
2022/11/23 06:11:13;;;;;;;92.20;24.80;;;0.60;99.90;;;;;;5072141;28;20067;-52
2022/11/23 06:13:38;;;;;;;228.50;30.83;;;0.50;99.90;;;;;;5050989;28;20033;-47
2022/11/23 06:16:04;;;;;;;155.55;28.40;;;0.60;99.90;;;;;;5070767;28;20028;-48
2022/11/23 06:18:29;;;;;;;112.28;24.98;;;0.50;99.90;;;;;;5050365;28;20033;-51
2022/11/23 06:20:58;;;;;;;112.80;24.30;;;0.50;99.90;;;;;;5069231;28;20028;-47
2022/11/23 06:23:24;;;;;;;102.07;23.00;;;0.50;99.90;;;;;;5049675;28;20059;-52
2022/11/23 06:25:49;;;;;;;142.98;28.13;;;0.50;99.90;;;;;;5070580;28;20046;-46
2022/11/23 06:28:15;;;;;;;142.00;31.13;;;0.50;99.90;;;;;;5050010;28;20394;-48
2022/11/23 06:30:40;;;;;;;88.57;24.33;;;0.50;99.90;;;;;;5070715;28;20037;-46
2022/11/23 06:33:06;;;;;;;124.18;24.92;;;0.50;99.90;;;;;;5049963;28;20714;-50
2022/11/23 06:35:31;;;;;;;192.38;31.85;;;0.50;99.90;;;;;;5070525;28;20043;-50
2022/11/23 06:37:57;;;;;;;88.18;23.15;;;0.50;99.90;;;;;;5050137;28;20501;-47
2022/11/23 06:40:23;;;;;;;107.40;27.13;;;0.50;99.90;;;;;;5062826;28;20037;-50
2022/11/23 06:42:48;;;;;;;129.50;26.60;;;0.50;99.90;;;;;;5059471;28;20039;-47
2022/11/23 06:45:14;;;;;;;150.30;28.90;;;0.40;99.90;;;;;;5051632;28;20083;-51
2022/11/23 06:47:39;;;;;;;104.00;25.10;;;0.40;99.90;;;;;;5068252;28;20050;-51
2022/11/23 06:50:05;;;;;;;132.48;27.73;;;0.40;99.90;;;;;;5051455;28;20029;-45
2022/11/23 06:52:31;;;;;;;135.95;27.13;;;0.40;99.90;;;;;;5068693;28;20029;-52
2022/11/23 06:54:56;;;;;;;95.13;23.92;;;0.40;99.90;;;;;;5051313;28;20032;-49
2022/11/23 06:57:22;;;;;;;118.70;27.33;;;0.40;99.90;;;;;;5068499;28;20056;-46
2022/11/23 06:59:47;;;;;;;105.90;26.08;;;0.40;99.90;;;;;;5070872;28;20548;-50
2022/11/23 07:02:13;;;;;;;79.60;22.17;;;0.40;99.90;;;;;;5054704;28;20028;-51
2022/11/23 07:04:39;;;;;;;90.97;23.90;;;0.40;99.90;;;;;;5068233;28;20059;-46
2022/11/23 07:07:07;;;;;;;88.30;25.15;;;0.40;99.90;;;;;;5050595;28;20071;-49
2022/11/23 07:09:32;;;;;;;71.55;23.25;;;0.40;99.90;;;;;;5071033;28;20029;-51
2022/11/23 07:11:58;;;;;;;59.45;23.00;;;0.40;99.90;;;;;;5052824;28;20480;-51
2022/11/23 07:14:23;;;;;;;78.70;25.27;;;0.50;99.90;;;;;;5070887;28;20389;-51
2022/11/23 07:16:49;;;;;;;69.22;23.40;;;0.50;99.90;;;;;;5051365;28;20029;-50
2022/11/23 07:19:14;;;;;;;98.82;25.45;;;0.40;99.90;;;;;;5070769;28;20378;-52
2022/11/23 07:21:40;;;;;;;60.05;23.05;;;0.40;99.90;;;;;;5049943;28;20055;-54
2022/11/23 07:24:05;;;;;;;76.90;25.83;;;0.40;99.90;;;;;;5070599;28;20566;-50
2022/11/23 07:26:31;;;;;;;63.85;24.42;;;0.50;99.90;;;;;;5051041;28;20039;-54
2022/11/23 07:28:56;;;;;;;69.43;22.98;;;0.50;99.90;;;;;;5068412;28;20029;-53
2022/11/23 07:31:22;;;;;;;62.20;22.48;;;0.50;99.90;;;;;;5050968;28;20119;-52
2022/11/23 07:33:48;;;;;;;55.33;19.83;;;0.50;99.90;;;;;;5049321;28;20425;-51
2022/11/23 07:36:13;;;;;;;72.57;22.52;;;0.50;99.90;;;;;;5069663;28;20028;-53
2022/11/23 07:38:39;;;;;;;71.38;25.70;;;0.50;99.90;;;;;;5049214;28;20043;-48
2022/11/23 07:41:05;;;;;;;72.63;26.10;;;0.50;99.90;;;;;;5069397;28;20805;-50
2022/11/23 07:43:30;;;;;;;78.55;26.83;;;0.50;99.90;;;;;;5048861;28;20108;-52
2022/11/23 07:45:56;;;;;;;65.93;24.98;;;0.50;99.90;;;;;;5069271;28;20484;-52
2022/11/23 07:48:22;;;;;;;72.25;24.88;;;0.60;99.90;;;;;;5048829;28;20029;-53
2022/11/23 07:50:52;;;;;;;77.13;27.75;;;0.60;99.90;;;;;;5069518;28;20036;-52
2022/11/23 07:53:17;;;;;;;70.63;24.25;;;0.60;99.90;;;;;;5048411;28;20091;-51
2022/11/23 07:55:43;;;;;;;65.25;22.55;;;0.60;99.90;;;;;;5069348;28;20055;-52
2022/11/23 07:58:09;;;;;;;52.10;20.95;;;0.70;99.90;;;;;;5048732;28;20025;-48
2022/11/23 08:00:35;;;;;;;55.90;21.33;;;0.70;99.90;;;;;;5069116;28;20047;-49
2022/11/23 08:03:01;;;;;;;57.65;23.25;;;0.80;99.90;;;;;;5048281;28;20488;-52
2022/11/23 08:05:26;;;;;;;55.92;23.10;;;0.90;99.90;;;;;;5056578;28;20057;-47
2022/11/23 08:07:58;;;;;;;51.78;23.95;;;0.90;99.90;;;;;;5067007;28;20617;-47
2022/11/23 08:10:24;;;;;;;55.58;21.83;;;0.90;99.90;;;;;;5029810;28;20036;-52
2022/11/23 08:12:49;;;;;;;55.67;22.42;;;1.00;99.90;;;;;;5066437;28;20036;-47
2022/11/23 08:15:15;;;;;;;60.05;26.27;;;1.10;99.90;;;;;;5050124;28;20100;-51
2022/11/23 08:17:40;;;;;;;63.42;25.70;;;1.10;99.90;;;;;;5066598;28;20036;-54
2022/11/23 08:20:06;;;;;;;55.72;23.60;;;1.20;99.90;;;;;;5049826;28;20048;-51
2022/11/23 08:22:32;;;;;;;51.42;22.48;;;1.30;99.90;;;;;;5066560;28;20041;-50
2022/11/23 08:24:57;;;;;;;56.20;24.23;;;1.40;99.90;;;;;;5049855;28;20045;-49
2022/11/23 08:27:23;;;;;;;57.70;23.98;;;1.50;99.90;;;;;;5066725;28;20422;-50
2022/11/23 08:29:48;;;;;;;58.17;24.52;;;1.60;99.90;;;;;;5069379;28;20029;-50
2022/11/23 08:32:14;;;;;;;62.15;27.20;;;1.70;99.90;;;;;;5052715;28;20078;-51
2022/11/23 08:34:41;;;;;;;57.15;25.05;;;1.80;99.90;;;;;;5069099;28;20028;-50
2022/11/23 08:37:07;;;;;;;60.33;26.20;;;1.80;99.90;;;;;;5052353;28;20025;-47
2022/11/23 08:39:32;;;;;;;57.88;24.70;;;1.90;99.90;;;;;;5068180;28;20593;-48
2022/11/23 08:41:58;;;;;;;63.03;27.55;;;2.00;99.90;;;;;;5050527;28;20119;-49
2022/11/23 08:44:23;;;;;;;56.78;26.83;;;2.20;99.90;;;;;;5069009;28;20021;-47
2022/11/23 08:46:49;;;;;;;54.83;25.25;;;2.40;99.90;;;;;;5049710;28;20742;-47
2022/11/23 08:49:15;;;;;;;50.30;22.27;;;2.50;99.90;;;;;;5069074;28;20029;-49
2022/11/23 08:51:40;;;;;;;47.83;22.17;;;2.60;99.90;;;;;;5048444;28;20079;-49
2022/11/23 08:54:06;;;;;;;54.95;25.58;;;2.70;99.90;;;;;;5068894;28;20048;-52
2022/11/23 08:56:31;;;;;;;48.45;23.10;;;2.70;99.90;;;;;;5048056;28;20028;-48
2022/11/23 08:58:57;;;;;;;48.33;23.88;;;2.80;99.90;;;;;;5066680;28;20047;-47
2022/11/23 09:01:22;;;;;;;49.78;24.25;;;2.90;99.90;;;;;;5049035;28;20392;-51
2022/11/23 09:03:47;;;;;;;50.90;24.98;;;3.00;99.90;;;;;;5047645;28;20033;-51
2022/11/23 09:06:13;;;;;;;53.38;26.42;;;3.10;99.90;;;;;;5064264;28;20051;-49
2022/11/23 09:08:39;;;;;;;50.33;24.45;;;3.20;99.90;;;;;;5047141;28;20108;-51
2022/11/23 09:11:06;;;;;;;52.63;24.00;;;3.40;99.90;;;;;;5067905;28;20087;-51
2022/11/23 09:13:34;;;;;;;45.15;22.35;;;3.70;99.90;;;;;;5046918;28;20614;-46
2022/11/23 09:16:02;;;;;;;45.40;23.67;;;3.90;99.90;;;;;;5068173;28;20025;-53
2022/11/23 09:18:29;;;;;;;47.40;23.73;;;4.00;99.90;;;;;;5047039;28;20029;-50
2022/11/23 09:20:55;;;;;;;50.03;24.05;;;4.10;99.90;;;;;;5067832;28;20036;-52
2022/11/23 09:23:21;;;;;;;44.47;23.83;;;4.10;99.90;;;;;;5047198;28;20118;-51
2022/11/23 09:25:48;;;;;;;50.58;25.13;;;4.00;99.90;;;;;;5067600;28;20032;-50
2022/11/23 09:28:21;;;;;;;43.58;22.02;;;4.00;99.90;;;;;;5046781;28;20033;-48
2022/11/23 09:30:46;;;;;;;46.00;22.92;;;4.00;99.90;;;;;;5028330;28;20029;-49
2022/11/23 09:33:13;;;;;;;46.33;23.25;;;3.90;99.90;;;;;;5051650;28;20041;-52
2022/11/23 09:35:38;;;;;;;42.28;22.38;;;3.80;99.90;;;;;;5067543;28;20025;-48
2022/11/23 09:38:04;;;;;;;45.33;22.88;;;3.80;99.90;;;;;;5046911;28;20052;-51
2022/11/23 09:40:38;;;;;;;45.00;22.38;;;3.80;99.90;;;;;;5058804;28;20069;-53
2022/11/23 09:43:12;;;;;;;41.08;18.33;;;3.90;99.90;;;;;;5041711;28;20021;-48
2022/11/23 09:45:49;;;;;;;34.92;17.30;;;4.00;99.90;;;;;;5032458;28;20026;-51
2022/11/23 09:48:21;;;;;;;40.50;19.70;;;4.10;99.90;;;;;;5044786;28;20647;-48
2022/11/23 09:50:51;;;;;;;41.20;20.60;;;4.10;99.90;;;;;;5071794;28;20032;-50
2022/11/23 09:53:23;;;;;;;41.90;19.65;;;4.20;99.90;;;;;;5044869;28;20033;-49
2022/11/23 09:55:56;;;;;;;42.05;21.38;;;4.20;99.90;;;;;;5072072;28;20071;-54
2022/11/23 09:58:26;;;;;;;42.28;21.27;;;4.20;99.90;;;;;;5050307;28;20517;-49
2022/11/23 10:01:03;;;;;;;39.42;20.77;;;4.20;99.90;;;;;;5071911;28;20474;-52
2022/11/23 10:03:33;;;;;;;42.38;22.25;;;4.10;99.90;;;;;;5046079;28;20033;-49
2022/11/23 10:06:20;;;;;;;36.58;20.67;;;4.20;99.90;;;;;;5029443;28;20037;-50
2022/11/23 10:09:14;;;;;;;43.38;22.42;;;4.20;99.90;;;;;;5048614;28;20025;-51
2022/11/23 10:12:04;;;;;;;43.75;21.65;;;4.10;99.90;;;;;;5031707;28;20310;-51
2022/11/23 10:14:50;;;;;;;42.75;22.73;;;4.10;99.90;;;;;;5071921;28;20095;-52
2022/11/23 10:17:40;;;;;;;43.03;22.30;;;4.20;99.90;;;;;;5041743;28;20511;-52
2022/11/23 10:20:28;;;;;;;47.05;23.98;;;4.20;99.90;;;;;;5071649;28;20029;-53
2022/11/23 10:23:00;;;;;;;46.38;24.77;;;4.10;99.90;;;;;;5050565;28;20040;-51
2022/11/23 10:25:31;;;;;;;46.42;24.33;;;4.10;99.90;;;;;;5070992;28;20025;-52
2022/11/23 10:28:00;;;;;;;44.90;22.27;;;4.00;99.90;;;;;;5052525;28;20033;-52
2022/11/23 10:30:26;;;;;;;44.65;22.38;;;4.00;99.90;;;;;;5051589;28;20025;-51
2022/11/23 10:33:10;;;;;;;43.28;22.45;;;4.00;99.90;;;;;;5068836;28;20103;-50
2022/11/23 10:35:37;;;;;;;43.50;20.90;;;4.00;99.90;;;;;;5031409;28;20052;-49
2022/11/23 10:38:20;;;;;;;49.58;23.05;;;4.10;99.90;;;;;;5056413;28;20054;-53
2022/11/23 10:41:05;;;;;;;40.92;19.67;;;4.10;99.90;;;;;;5052311;28;20133;-48
2022/11/23 10:43:53;;;;;;;45.17;23.27;;;4.10;99.90;;;;;;5045882;28;20512;-54
2022/11/23 10:46:34;;;;;;;41.08;22.73;;;4.10;99.90;;;;;;5010870;28;20044;-48
2022/11/23 10:49:29;;;;;;;44.08;23.40;;;4.20;99.90;;;;;;5071466;28;20699;-52
2022/11/23 10:52:16;;;;;;;44.72;21.70;;;4.20;99.90;;;;;;5035328;28;20028;-51
2022/11/23 10:54:45;;;;;;;41.00;21.55;;;4.20;99.90;;;;;;5070197;28;20032;-48
2022/11/23 10:57:30;;;;;;;34.00;19.55;;;4.30;99.90;;;;;;5054631;28;20036;-49
2022/11/23 11:00:11;;;;;;;39.70;21.50;;;4.40;99.90;;;;;;5071043;28;20049;-55
2022/11/23 11:02:42;;;;;;;41.42;21.48;;;4.30;99.90;;;;;;5046901;28;20033;-54
2022/11/23 11:05:30;;;;;;;42.72;21.48;;;4.40;99.90;;;;;;5042836;28;20064;-48
2022/11/23 11:07:59;;;;;;;37.60;19.42;;;4.50;99.90;;;;;;5069218;28;20063;-49
2022/11/23 11:10:55;;;;;;;39.10;20.83;;;4.50;99.90;;;;;;5051027;28;20036;-47
2022/11/23 11:13:23;;;;;;;37.92;20.15;;;4.60;99.90;;;;;;5035799;28;20167;-50
2022/11/23 11:16:03;;;;;;;38.08;19.35;;;4.60;99.90;;;;;;5070208;28;20628;-49
2022/11/23 11:18:34;;;;;;;40.88;20.85;;;4.70;99.90;;;;;;5044790;28;20033;-52
2022/11/23 11:21:04;;;;;;;43.90;21.25;;;4.60;99.90;;;;;;5070333;28;20090;-52
2022/11/23 11:23:30;;;;;;;39.10;20.88;;;4.60;99.90;;;;;;5048833;28;20059;-52
2022/11/23 11:26:17;;;;;;;40.03;21.40;;;4.60;99.90;;;;;;5069928;28;20446;-49
2022/11/23 11:28:45;;;;;;;;;;;4.70;99.90;;;;;;5046992;28;20172;-53
2022/11/23 11:31:25;;;;;;;39.08;19.05;;;4.70;99.90;;;;;;5070065;28;19912;-53
2022/11/23 11:33:54;;;;;;;39.88;19.88;;;4.80;99.90;;;;;;5047676;28;20413;-52
2022/11/23 11:36:20;;;;;;;37.38;20.67;;;4.90;99.90;;;;;;5070177;28;20028;-52
2022/11/23 11:38:49;;;;;;;35.35;19.92;;;4.90;99.90;;;;;;5049047;28;20195;-50
2022/11/23 11:41:18;;;;;;;36.33;20.45;;;5.00;99.90;;;;;;5069833;28;20048;-53
2022/11/23 11:43:52;;;;;;;38.17;19.38;;;5.00;99.90;;;;;;5048496;28;20039;-52
2022/11/23 11:46:33;;;;;;;36.80;20.27;;;5.00;99.90;;;;;;5030334;28;20148;-49
2022/11/23 11:49:18;;;;;;;39.20;22.02;;;5.00;99.90;;;;;;5049685;28;20483;-52
2022/11/23 11:52:14;;;;;;;34.07;19.67;;;4.80;99.90;;;;;;5031200;28;20068;-50
2022/11/23 11:54:58;;;;;;;38.00;20.23;;;4.80;99.90;;;;;;5070077;28;20025;-50
2022/11/23 11:57:36;;;;;;;37.50;19.92;;;4.70;99.90;;;;;;5042045;28;20036;-51
2022/11/23 12:00:09;;;;;;;36.47;19.23;;;4.70;99.90;;;;;;5069845;28;20518;-53
2022/11/23 12:02:40;;;;;;;42.53;21.42;;;4.70;99.90;;;;;;5044648;28;20033;-55
2022/11/23 12:05:31;;;;;;;39.55;21.88;;;4.70;99.90;;;;;;5037252;28;20399;-53
2022/11/23 12:08:04;;;;;;;39.00;20.83;;;4.60;99.90;;;;;;5051159;28;20253;-51
2022/11/23 12:10:42;;;;;;;47.10;23.40;;;4.60;99.90;;;;;;5049855;28;20029;-51
2022/11/23 12:13:16;;;;;;;39.05;20.27;;;4.60;99.90;;;;;;5041198;28;20029;-51
2022/11/23 12:15:47;;;;;;;41.65;19.73;;;4.60;99.90;;;;;;5029730;28;20026;-49
2022/11/23 12:18:39;;;;;;;40.58;20.75;;;4.60;99.90;;;;;;5041150;28;20386;-52
2022/11/23 12:21:13;;;;;;;41.67;21.80;;;4.60;99.90;;;;;;5055219;28;20062;-49
2022/11/23 12:24:12;;;;;;;39.00;20.30;;;4.60;99.90;;;;;;5032646;28;20389;-50
2022/11/23 12:27:06;;;;;;;37.90;20.73;;;4.60;99.90;;;;;;5029685;28;20641;-50
2022/11/23 12:30:17;;;;;;;37.38;20.05;;;4.60;99.90;;;;;;5051680;28;20120;-50
2022/11/23 12:33:12;;;;;;;40.53;20.83;;;4.70;99.90;;;;;;5049734;28;20522;-50
2022/11/23 12:35:50;;;;;;;39.35;19.70;;;4.70;99.90;;;;;;5029169;28;20037;-50
2022/11/23 12:38:43;;;;;;;39.80;20.35;;;4.80;99.90;;;;;;5065911;28;20033;-51
2022/11/23 12:41:21;;;;;;;44.90;21.83;;;4.80;99.90;;;;;;5054972;28;20045;-49
2022/11/23 12:44:06;;;;;;;43.80;20.98;;;4.80;99.90;;;;;;5039248;28;20028;-55
2022/11/23 12:46:59;;;;;;;37.08;20.63;;;4.80;99.90;;;;;;5069010;28;20099;-52